sensor_id;sensor_type;location;lat;lon;timestamp;temperature;humidity
16511;DHT22;8368;48.772;8.754;2023-02-28T00:00:18;-2.90;99.90
16511;DHT22;8368;48.772;8.754;2023-02-28T00:02:44;-2.90;99.90
16511;DHT22;8368;48.772;8.754;2023-02-28T00:05:12;-2.90;99.90
16511;DHT22;8368;48.772;8.754;2023-02-28T00:07:38;-2.90;99.90
16511;DHT22;8368;48.772;8.754;2023-02-28T00:10:07;-2.90;99.90
16511;DHT22;8368;48.772;8.754;2023-02-28T00:12:34;-3.00;99.90
16511;DHT22;8368;48.772;8.754;2023-02-28T00:15:01;-3.00;99.90
16511;DHT22;8368;48.772;8.754;2023-02-28T00:17:26;-3.10;99.90
16511;DHT22;8368;48.772;8.754;2023-02-28T00:19:52;-3.10;99.90
16511;DHT22;8368;48.772;8.754;2023-02-28T00:22:19;-3.10;99.90
16511;DHT22;8368;48.772;8.754;2023-02-28T00:24:45;-3.10;99.90
16511;DHT22;8368;48.772;8.754;2023-02-28T00:27:11;-3.20;99.90
16511;DHT22;8368;48.772;8.754;2023-02-28T00:29:37;-3.20;99.90
16511;DHT22;8368;48.772;8.754;2023-02-28T00:32:04;-3.20;99.90
16511;DHT22;8368;48.772;8.754;2023-02-28T00:34:29;-3.30;99.90
16511;DHT22;8368;48.772;8.754;2023-02-28T00:36:55;-3.30;99.90
16511;DHT22;8368;48.772;8.754;2023-02-28T00:39:21;-3.30;99.90
16511;DHT22;8368;48.772;8.754;2023-02-28T00:41:46;-3.30;99.90
16511;DHT22;8368;48.772;8.754;2023-02-28T00:44:12;-3.30;99.90
16511;DHT22;8368;48.772;8.754;2023-02-28T00:46:38;-3.40;99.90
16511;DHT22;8368;48.772;8.754;2023-02-28T00:49:03;-3.30;99.90
16511;DHT22;8368;48.772;8.754;2023-02-28T00:51:29;-3.30;99.90
16511;DHT22;8368;48.772;8.754;2023-02-28T00:53:54;-3.40;99.90
16511;DHT22;8368;48.772;8.754;2023-02-28T00:56:20;-3.30;99.90
16511;DHT22;8368;48.772;8.754;2023-02-28T00:58:46;-3.30;99.90
16511;DHT22;8368;48.772;8.754;2023-02-28T01:01:11;-3.40;99.90
16511;DHT22;8368;48.772;8.754;2023-02-28T01:03:37;-3.30;99.90
16511;DHT22;8368;48.772;8.754;2023-02-28T01:06:03;-3.30;99.90
16511;DHT22;8368;48.772;8.754;2023-02-28T01:08:29;-3.40;99.90
16511;DHT22;8368;48.772;8.754;2023-02-28T01:10:55;-3.40;99.90
16511;DHT22;8368;48.772;8.754;2023-02-28T01:13:20;-3.40;99.90
16511;DHT22;8368;48.772;8.754;2023-02-28T01:15:51;-3.40;99.90
16511;DHT22;8368;48.772;8.754;2023-02-28T01:18:17;-3.50;99.90
16511;DHT22;8368;48.772;8.754;2023-02-28T01:20:43;-3.50;99.90
16511;DHT22;8368;48.772;8.754;2023-02-28T01:23:09;-3.50;99.90
16511;DHT22;8368;48.772;8.754;2023-02-28T01:25:35;-3.50;99.90
16511;DHT22;8368;48.772;8.754;2023-02-28T01:28:01;-3.50;99.90
16511;DHT22;8368;48.772;8.754;2023-02-28T01:30:27;-3.50;99.90
16511;DHT22;8368;48.772;8.754;2023-02-28T01:32:52;-3.60;99.90
16511;DHT22;8368;48.772;8.754;2023-02-28T01:35:19;-3.50;99.90
16511;DHT22;8368;48.772;8.754;2023-02-28T01:37:44;-3.60;99.90
16511;DHT22;8368;48.772;8.754;2023-02-28T01:40:11;-3.50;99.90
16511;DHT22;8368;48.772;8.754;2023-02-28T01:42:37;-3.50;99.90
16511;DHT22;8368;48.772;8.754;2023-02-28T01:47:56;-3.60;99.90
16511;DHT22;8368;48.772;8.754;2023-02-28T01:50:27;-3.60;99.90
16511;DHT22;8368;48.772;8.754;2023-02-28T01:52:56;-3.60;99.90
16511;DHT22;8368;48.772;8.754;2023-02-28T01:55:23;-3.60;99.90
16511;DHT22;8368;48.772;8.754;2023-02-28T01:57:55;-3.70;99.90
16511;DHT22;8368;48.772;8.754;2023-02-28T02:00:24;-3.60;99.90
16511;DHT22;8368;48.772;8.754;2023-02-28T02:02:57;-3.70;99.90
16511;DHT22;8368;48.772;8.754;2023-02-28T02:05:26;-3.80;99.90
16511;DHT22;8368;48.772;8.754;2023-02-28T02:08:01;-3.70;99.90
16511;DHT22;8368;48.772;8.754;2023-02-28T02:10:40;-3.80;99.90
16511;DHT22;8368;48.772;8.754;2023-02-28T02:16:26;-3.70;99.90
16511;DHT22;8368;48.772;8.754;2023-02-28T02:19:29;-3.80;99.90
16511;DHT22;8368;48.772;8.754;2023-02-28T02:22:38;-3.80;99.90
16511;DHT22;8368;48.772;8.754;2023-02-28T02:25:38;-3.80;99.90
16511;DHT22;8368;48.772;8.754;2023-02-28T02:28:40;-3.80;99.90
16511;DHT22;8368;48.772;8.754;2023-02-28T02:31:38;-3.90;99.90
16511;DHT22;8368;48.772;8.754;2023-02-28T02:37:19;-4.00;99.90
16511;DHT22;8368;48.772;8.754;2023-02-28T02:39:52;-4.00;99.90
16511;DHT22;8368;48.772;8.754;2023-02-28T02:42:33;-4.00;99.90
16511;DHT22;8368;48.772;8.754;2023-02-28T02:47:41;-4.00;99.90
16511;DHT22;8368;48.772;8.754;2023-02-28T02:50:12;-4.00;99.90
16511;DHT22;8368;48.772;8.754;2023-02-28T02:52:44;-4.00;99.90
16511;DHT22;8368;48.772;8.754;2023-02-28T02:55:12;-4.00;99.90
16511;DHT22;8368;48.772;8.754;2023-02-28T02:57:45;-4.10;99.90
16511;DHT22;8368;48.772;8.754;2023-02-28T03:00:12;-4.00;99.90
16511;DHT22;8368;48.772;8.754;2023-02-28T03:02:40;-4.10;99.90
16511;DHT22;8368;48.772;8.754;2023-02-28T03:05:17;-4.10;99.90
16511;DHT22;8368;48.772;8.754;2023-02-28T03:07:44;-4.10;99.90
16511;DHT22;8368;48.772;8.754;2023-02-28T03:13:21;-4.10;99.90
16511;DHT22;8368;48.772;8.754;2023-02-28T03:16:18;-4.00;99.90
16511;DHT22;8368;48.772;8.754;2023-02-28T03:21:41;-4.10;99.90
16511;DHT22;8368;48.772;8.754;2023-02-28T03:26:52;-4.10;99.90
16511;DHT22;8368;48.772;8.754;2023-02-28T03:29:30;-4.00;99.90
16511;DHT22;8368;48.772;8.754;2023-02-28T03:34:38;-3.90;99.90
16511;DHT22;8368;48.772;8.754;2023-02-28T03:37:18;-4.00;99.90
16511;DHT22;8368;48.772;8.754;2023-02-28T03:39:55;-4.00;99.90
16511;DHT22;8368;48.772;8.754;2023-02-28T03:42:25;-4.00;99.90
16511;DHT22;8368;48.772;8.754;2023-02-28T03:44:58;-4.00;99.90
16511;DHT22;8368;48.772;8.754;2023-02-28T03:47:36;-3.90;99.90
16511;DHT22;8368;48.772;8.754;2023-02-28T03:50:08;-3.90;99.90
16511;DHT22;8368;48.772;8.754;2023-02-28T03:53:15;-3.80;99.90
16511;DHT22;8368;48.772;8.754;2023-02-28T03:55:47;-3.80;99.90
16511;DHT22;8368;48.772;8.754;2023-02-28T03:58:40;-3.70;99.90
16511;DHT22;8368;48.772;8.754;2023-02-28T04:01:23;-3.70;99.90
16511;DHT22;8368;48.772;8.754;2023-02-28T04:03:51;-3.60;99.90
16511;DHT22;8368;48.772;8.754;2023-02-28T04:06:21;-3.60;99.90
16511;DHT22;8368;48.772;8.754;2023-02-28T04:08:48;-3.60;99.90
16511;DHT22;8368;48.772;8.754;2023-02-28T04:11:23;-3.50;99.90
16511;DHT22;8368;48.772;8.754;2023-02-28T04:13:49;-3.50;99.90
16511;DHT22;8368;48.772;8.754;2023-02-28T04:16:15;-3.50;99.90
16511;DHT22;8368;48.772;8.754;2023-02-28T04:18:42;-3.50;99.90
16511;DHT22;8368;48.772;8.754;2023-02-28T04:21:11;-3.50;99.90
16511;DHT22;8368;48.772;8.754;2023-02-28T04:23:37;-3.50;99.90
16511;DHT22;8368;48.772;8.754;2023-02-28T04:26:03;-3.60;99.90
16511;DHT22;8368;48.772;8.754;2023-02-28T04:28:29;-3.50;99.90
16511;DHT22;8368;48.772;8.754;2023-02-28T04:30:59;-3.50;99.90
16511;DHT22;8368;48.772;8.754;2023-02-28T04:33:25;-3.50;99.90
16511;DHT22;8368;48.772;8.754;2023-02-28T04:36:02;-3.60;99.90
16511;DHT22;8368;48.772;8.754;2023-02-28T04:38:29;-3.60;99.90
16511;DHT22;8368;48.772;8.754;2023-02-28T04:40:57;-3.60;99.90
16511;DHT22;8368;48.772;8.754;2023-02-28T04:43:23;-3.60;99.90
16511;DHT22;8368;48.772;8.754;2023-02-28T04:45:49;-3.50;99.90
16511;DHT22;8368;48.772;8.754;2023-02-28T04:48:14;-3.50;99.90
16511;DHT22;8368;48.772;8.754;2023-02-28T04:50:40;-3.50;99.90
16511;DHT22;8368;48.772;8.754;2023-02-28T04:53:05;-3.50;99.90
16511;DHT22;8368;48.772;8.754;2023-02-28T04:55:31;-3.50;99.90
16511;DHT22;8368;48.772;8.754;2023-02-28T04:57:56;-3.40;99.90
16511;DHT22;8368;48.772;8.754;2023-02-28T05:00:23;-3.40;99.90
16511;DHT22;8368;48.772;8.754;2023-02-28T05:02:48;-3.40;99.90
16511;DHT22;8368;48.772;8.754;2023-02-28T05:05:14;-3.30;99.90
16511;DHT22;8368;48.772;8.754;2023-02-28T05:07:44;-3.30;99.90
16511;DHT22;8368;48.772;8.754;2023-02-28T05:10:10;-3.30;99.90
16511;DHT22;8368;48.772;8.754;2023-02-28T05:12:36;-3.30;99.90
16511;DHT22;8368;48.772;8.754;2023-02-28T05:15:01;-3.30;99.90
16511;DHT22;8368;48.772;8.754;2023-02-28T05:17:28;-3.30;99.90
16511;DHT22;8368;48.772;8.754;2023-02-28T05:19:53;-3.20;99.90
16511;DHT22;8368;48.772;8.754;2023-02-28T05:22:19;-3.20;99.90
16511;DHT22;8368;48.772;8.754;2023-02-28T05:24:44;-3.20;99.90
16511;DHT22;8368;48.772;8.754;2023-02-28T05:27:10;-3.20;99.90
16511;DHT22;8368;48.772;8.754;2023-02-28T05:29:39;-3.20;99.90
16511;DHT22;8368;48.772;8.754;2023-02-28T05:32:11;-3.10;99.90
16511;DHT22;8368;48.772;8.754;2023-02-28T05:34:38;-3.20;99.90
16511;DHT22;8368;48.772;8.754;2023-02-28T05:37:05;-3.10;99.90
16511;DHT22;8368;48.772;8.754;2023-02-28T05:39:31;-3.00;99.90
16511;DHT22;8368;48.772;8.754;2023-02-28T05:41:56;-3.00;99.90
16511;DHT22;8368;48.772;8.754;2023-02-28T05:44:22;-3.00;99.90
16511;DHT22;8368;48.772;8.754;2023-02-28T05:46:47;-3.00;99.90
16511;DHT22;8368;48.772;8.754;2023-02-28T05:49:13;-2.90;99.90
16511;DHT22;8368;48.772;8.754;2023-02-28T05:51:38;-2.90;99.90
16511;DHT22;8368;48.772;8.754;2023-02-28T05:54:05;-2.90;99.90
16511;DHT22;8368;48.772;8.754;2023-02-28T05:56:31;-2.90;99.90
16511;DHT22;8368;48.772;8.754;2023-02-28T05:58:59;-2.90;99.90
16511;DHT22;8368;48.772;8.754;2023-02-28T06:01:32;-2.90;99.90
16511;DHT22;8368;48.772;8.754;2023-02-28T06:04:02;-2.90;99.90
16511;DHT22;8368;48.772;8.754;2023-02-28T06:06:28;-2.90;99.90
16511;DHT22;8368;48.772;8.754;2023-02-28T06:08:55;-2.90;99.90
16511;DHT22;8368;48.772;8.754;2023-02-28T06:11:21;-2.80;99.90
16511;DHT22;8368;48.772;8.754;2023-02-28T06:13:47;-2.80;99.90
16511;DHT22;8368;48.772;8.754;2023-02-28T06:16:12;-2.80;99.90
16511;DHT22;8368;48.772;8.754;2023-02-28T06:18:38;-2.80;99.90
16511;DHT22;8368;48.772;8.754;2023-02-28T06:21:04;-2.80;99.90
16511;DHT22;8368;48.772;8.754;2023-02-28T06:23:30;-2.80;99.90
16511;DHT22;8368;48.772;8.754;2023-02-28T06:25:56;-2.70;99.90
16511;DHT22;8368;48.772;8.754;2023-02-28T06:28:24;-2.80;99.90
16511;DHT22;8368;48.772;8.754;2023-02-28T06:30:50;-2.70;99.90
16511;DHT22;8368;48.772;8.754;2023-02-28T06:33:16;-2.60;99.90
16511;DHT22;8368;48.772;8.754;2023-02-28T06:35:44;-2.60;99.90
16511;DHT22;8368;48.772;8.754;2023-02-28T06:38:11;-2.60;99.90
16511;DHT22;8368;48.772;8.754;2023-02-28T06:40:37;-2.60;99.90
16511;DHT22;8368;48.772;8.754;2023-02-28T06:43:02;-2.50;99.90
16511;DHT22;8368;48.772;8.754;2023-02-28T06:45:28;-2.60;99.90
16511;DHT22;8368;48.772;8.754;2023-02-28T06:47:54;-2.50;99.90
16511;DHT22;8368;48.772;8.754;2023-02-28T06:50:19;-2.50;99.90
16511;DHT22;8368;48.772;8.754;2023-02-28T06:52:46;-2.50;99.90
16511;DHT22;8368;48.772;8.754;2023-02-28T06:55:12;-2.50;99.90
16511;DHT22;8368;48.772;8.754;2023-02-28T06:57:38;-2.50;99.90
16511;DHT22;8368;48.772;8.754;2023-02-28T07:00:07;-2.50;99.90
16511;DHT22;8368;48.772;8.754;2023-02-28T07:02:36;-2.50;99.90
16511;DHT22;8368;48.772;8.754;2023-02-28T07:05:03;-2.40;99.90
16511;DHT22;8368;48.772;8.754;2023-02-28T07:07:29;-2.50;99.90
16511;DHT22;8368;48.772;8.754;2023-02-28T07:09:55;-2.40;99.90
16511;DHT22;8368;48.772;8.754;2023-02-28T07:12:20;-2.50;99.90
16511;DHT22;8368;48.772;8.754;2023-02-28T07:14:46;-2.40;99.90
16511;DHT22;8368;48.772;8.754;2023-02-28T07:17:12;-2.30;99.90
16511;DHT22;8368;48.772;8.754;2023-02-28T07:19:38;-2.30;99.90
16511;DHT22;8368;48.772;8.754;2023-02-28T07:22:04;-2.20;99.90
16511;DHT22;8368;48.772;8.754;2023-02-28T07:24:30;-2.20;99.90
16511;DHT22;8368;48.772;8.754;2023-02-28T07:26:56;-2.20;99.90
16511;DHT22;8368;48.772;8.754;2023-02-28T07:29:22;-2.20;99.90
16511;DHT22;8368;48.772;8.754;2023-02-28T07:31:47;-2.20;99.90
16511;DHT22;8368;48.772;8.754;2023-02-28T07:34:13;-2.10;99.90
16511;DHT22;8368;48.772;8.754;2023-02-28T07:36:39;-2.10;99.90
16511;DHT22;8368;48.772;8.754;2023-02-28T07:39:04;-2.10;99.90
16511;DHT22;8368;48.772;8.754;2023-02-28T07:41:30;-2.10;99.90
16511;DHT22;8368;48.772;8.754;2023-02-28T07:43:59;-2.20;99.90
16511;DHT22;8368;48.772;8.754;2023-02-28T07:46:25;-2.10;99.90
16511;DHT22;8368;48.772;8.754;2023-02-28T07:48:51;-2.10;99.90
16511;DHT22;8368;48.772;8.754;2023-02-28T07:51:16;-2.00;99.90
16511;DHT22;8368;48.772;8.754;2023-02-28T07:53:42;-1.90;99.90
16511;DHT22;8368;48.772;8.754;2023-02-28T07:56:08;-1.90;99.90
16511;DHT22;8368;48.772;8.754;2023-02-28T07:58:33;-1.90;99.90
16511;DHT22;8368;48.772;8.754;2023-02-28T08:01:10;-1.70;99.90
16511;DHT22;8368;48.772;8.754;2023-02-28T08:03:36;-1.80;99.90
16511;DHT22;8368;48.772;8.754;2023-02-28T08:06:03;-1.80;99.90
16511;DHT22;8368;48.772;8.754;2023-02-28T08:08:29;-1.70;99.90
16511;DHT22;8368;48.772;8.754;2023-02-28T08:10:59;-1.70;99.90
16511;DHT22;8368;48.772;8.754;2023-02-28T08:13:25;-1.90;99.90
16511;DHT22;8368;48.772;8.754;2023-02-28T08:15:52;-1.90;99.90
16511;DHT22;8368;48.772;8.754;2023-02-28T08:18:19;-1.80;99.90
16511;DHT22;8368;48.772;8.754;2023-02-28T08:20:44;-1.80;99.90
16511;DHT22;8368;48.772;8.754;2023-02-28T08:23:10;-1.70;99.90
16511;DHT22;8368;48.772;8.754;2023-02-28T08:25:35;-1.70;99.90
16511;DHT22;8368;48.772;8.754;2023-02-28T08:28:01;-1.70;99.90
16511;DHT22;8368;48.772;8.754;2023-02-28T08:30:26;-1.70;99.90
16511;DHT22;8368;48.772;8.754;2023-02-28T08:32:53;-1.70;99.90
16511;DHT22;8368;48.772;8.754;2023-02-28T08:35:19;-1.70;99.90
16511;DHT22;8368;48.772;8.754;2023-02-28T08:37:47;-1.70;99.90
16511;DHT22;8368;48.772;8.754;2023-02-28T08:40:13;-1.60;99.90
16511;DHT22;8368;48.772;8.754;2023-02-28T08:42:44;-1.60;99.90
16511;DHT22;8368;48.772;8.754;2023-02-28T08:45:10;-1.50;99.90
16511;DHT22;8368;48.772;8.754;2023-02-28T08:47:36;-1.50;99.90
16511;DHT22;8368;48.772;8.754;2023-02-28T08:50:02;-1.50;99.90
16511;DHT22;8368;48.772;8.754;2023-02-28T08:52:27;-1.50;99.90
16511;DHT22;8368;48.772;8.754;2023-02-28T08:54:53;-1.50;99.90
16511;DHT22;8368;48.772;8.754;2023-02-28T08:57:18;-1.50;99.90
16511;DHT22;8368;48.772;8.754;2023-02-28T08:59:44;-1.60;99.90
16511;DHT22;8368;48.772;8.754;2023-02-28T09:02:12;-1.50;99.90
16511;DHT22;8368;48.772;8.754;2023-02-28T09:04:38;-1.50;99.90
16511;DHT22;8368;48.772;8.754;2023-02-28T09:07:03;-1.50;99.90
16511;DHT22;8368;48.772;8.754;2023-02-28T09:09:29;-1.40;99.90
16511;DHT22;8368;48.772;8.754;2023-02-28T09:11:57;-1.30;99.90
16511;DHT22;8368;48.772;8.754;2023-02-28T09:14:23;-1.20;99.90
16511;DHT22;8368;48.772;8.754;2023-02-28T09:16:49;-1.20;99.90
16511;DHT22;8368;48.772;8.754;2023-02-28T09:19:14;-1.20;99.90
16511;DHT22;8368;48.772;8.754;2023-02-28T09:21:40;-1.20;99.90
16511;DHT22;8368;48.772;8.754;2023-02-28T09:24:06;-1.20;99.90
16511;DHT22;8368;48.772;8.754;2023-02-28T09:26:32;-1.10;99.90
16511;DHT22;8368;48.772;8.754;2023-02-28T09:28:59;-1.10;99.90
16511;DHT22;8368;48.772;8.754;2023-02-28T09:31:27;-1.00;99.90
16511;DHT22;8368;48.772;8.754;2023-02-28T09:33:55;-1.00;99.90
16511;DHT22;8368;48.772;8.754;2023-02-28T09:36:22;-1.00;99.90
16511;DHT22;8368;48.772;8.754;2023-02-28T09:38:48;-1.00;99.90
16511;DHT22;8368;48.772;8.754;2023-02-28T09:41:22;-1.10;99.90
16511;DHT22;8368;48.772;8.754;2023-02-28T09:43:52;-1.10;99.90
16511;DHT22;8368;48.772;8.754;2023-02-28T09:46:37;-1.00;99.90
16511;DHT22;8368;48.772;8.754;2023-02-28T09:49:11;-1.00;99.90
16511;DHT22;8368;48.772;8.754;2023-02-28T09:54:20;-0.70;99.90
16511;DHT22;8368;48.772;8.754;2023-02-28T09:57:02;-0.80;99.90
16511;DHT22;8368;48.772;8.754;2023-02-28T09:59:42;-0.80;99.90
16511;DHT22;8368;48.772;8.754;2023-02-28T10:02:34;-0.70;99.90
16511;DHT22;8368;48.772;8.754;2023-02-28T10:05:11;-0.50;99.90
16511;DHT22;8368;48.772;8.754;2023-02-28T10:10:47;-0.50;99.90
16511;DHT22;8368;48.772;8.754;2023-02-28T10:15:50;-0.50;99.90
16511;DHT22;8368;48.772;8.754;2023-02-28T10:18:21;-0.40;99.90
16511;DHT22;8368;48.772;8.754;2023-02-28T10:20:49;-0.30;99.90
16511;DHT22;8368;48.772;8.754;2023-02-28T10:23:28;-0.30;99.90
16511;DHT22;8368;48.772;8.754;2023-02-28T10:26:00;-0.30;99.90
16511;DHT22;8368;48.772;8.754;2023-02-28T10:28:26;-0.30;99.90
16511;DHT22;8368;48.772;8.754;2023-02-28T10:30:54;-0.20;99.90
16511;DHT22;8368;48.772;8.754;2023-02-28T10:33:34;-0.30;99.90
16511;DHT22;8368;48.772;8.754;2023-02-28T10:36:00;-0.10;99.90
16511;DHT22;8368;48.772;8.754;2023-02-28T10:38:32;-0.10;99.90
16511;DHT22;8368;48.772;8.754;2023-02-28T10:43:35;-0.10;99.90
16511;DHT22;8368;48.772;8.754;2023-02-28T10:50:56;0.20;99.90
16511;DHT22;8368;48.772;8.754;2023-02-28T10:53:31;0.10;99.90
16511;DHT22;8368;48.772;8.754;2023-02-28T10:58:51;0.40;99.90
16511;DHT22;8368;48.772;8.754;2023-02-28T11:03:45;0.60;99.90
16511;DHT22;8368;48.772;8.754;2023-02-28T11:06:20;0.60;99.90
16511;DHT22;8368;48.772;8.754;2023-02-28T11:08:55;0.70;99.90
16511;DHT22;8368;48.772;8.754;2023-02-28T11:11:23;0.80;99.90
16511;DHT22;8368;48.772;8.754;2023-02-28T11:13:53;0.90;99.90
16511;DHT22;8368;48.772;8.754;2023-02-28T11:16:19;1.00;99.90
16511;DHT22;8368;48.772;8.754;2023-02-28T11:18:50;1.00;99.90
16511;DHT22;8368;48.772;8.754;2023-02-28T11:21:23;1.20;99.90
16511;DHT22;8368;48.772;8.754;2023-02-28T11:23:54;1.20;99.90
16511;DHT22;8368;48.772;8.754;2023-02-28T11:26:43;1.20;99.90
16511;DHT22;8368;48.772;8.754;2023-02-28T11:29:21;1.40;99.90
16511;DHT22;8368;48.772;8.754;2023-02-28T11:32:12;1.40;99.90
16511;DHT22;8368;48.772;8.754;2023-02-28T11:34:39;1.40;99.90
16511;DHT22;8368;48.772;8.754;2023-02-28T11:37:16;1.50;99.90
16511;DHT22;8368;48.772;8.754;2023-02-28T11:39:44;1.60;99.90
16511;DHT22;8368;48.772;8.754;2023-02-28T11:44:45;1.90;99.90
16511;DHT22;8368;48.772;8.754;2023-02-28T11:47:30;2.00;99.90
16511;DHT22;8368;48.772;8.754;2023-02-28T11:53:05;2.00;99.90
16511;DHT22;8368;48.772;8.754;2023-02-28T11:58:26;2.10;99.90
16511;DHT22;8368;48.772;8.754;2023-02-28T12:01:09;2.20;99.90
16511;DHT22;8368;48.772;8.754;2023-02-28T12:11:56;2.10;99.90
16511;DHT22;8368;48.772;8.754;2023-02-28T12:20:34;1.80;99.90
16511;DHT22;8368;48.772;8.754;2023-02-28T12:23:14;1.90;99.90
16511;DHT22;8368;48.772;8.754;2023-02-28T12:28:17;2.00;99.90
16511;DHT22;8368;48.772;8.754;2023-02-28T12:31:06;2.00;99.90
16511;DHT22;8368;48.772;8.754;2023-02-28T12:33:38;2.00;99.90
16511;DHT22;8368;48.772;8.754;2023-02-28T12:36:11;1.90;99.90
16511;DHT22;8368;48.772;8.754;2023-02-28T12:38:47;1.80;99.90
16511;DHT22;8368;48.772;8.754;2023-02-28T12:41:33;1.70;99.90
16511;DHT22;8368;48.772;8.754;2023-02-28T12:44:55;1.50;99.90
16511;DHT22;8368;48.772;8.754;2023-02-28T12:46:59;1.60;99.90
16511;DHT22;8368;48.772;8.754;2023-02-28T12:51:58;1.80;99.90
16511;DHT22;8368;48.772;8.754;2023-02-28T12:54:47;2.10;99.90
16511;DHT22;8368;48.772;8.754;2023-02-28T12:58:08;2.30;99.90
16511;DHT22;8368;48.772;8.754;2023-02-28T13:00:17;2.50;99.90
16511;DHT22;8368;48.772;8.754;2023-02-28T13:06:10;3.10;99.90
16511;DHT22;8368;48.772;8.754;2023-02-28T13:09:12;3.50;99.90
16511;DHT22;8368;48.772;8.754;2023-02-28T13:11:47;3.50;99.90
16511;DHT22;8368;48.772;8.754;2023-02-28T13:14:35;3.80;99.90
16511;DHT22;8368;48.772;8.754;2023-02-28T13:19:37;4.10;99.90
16511;DHT22;8368;48.772;8.754;2023-02-28T13:22:03;3.80;99.90
16511;DHT22;8368;48.772;8.754;2023-02-28T13:24:38;3.60;99.90
16511;DHT22;8368;48.772;8.754;2023-02-28T13:29:42;3.20;99.90
16511;DHT22;8368;48.772;8.754;2023-02-28T13:34:35;3.60;99.90
16511;DHT22;8368;48.772;8.754;2023-02-28T13:39:57;5.30;99.90
16511;DHT22;8368;48.772;8.754;2023-02-28T13:47:54;5.70;99.90
16511;DHT22;8368;48.772;8.754;2023-02-28T13:55:34;4.60;99.90
16511;DHT22;8368;48.772;8.754;2023-02-28T13:58:07;4.80;99.90
16511;DHT22;8368;48.772;8.754;2023-02-28T14:03:26;5.00;99.90
16511;DHT22;8368;48.772;8.754;2023-02-28T14:08:58;5.00;99.90
16511;DHT22;8368;48.772;8.754;2023-02-28T14:11:34;4.60;99.90
16511;DHT22;8368;48.772;8.754;2023-02-28T14:14:01;4.20;99.90
16511;DHT22;8368;48.772;8.754;2023-02-28T14:19:24;4.10;99.90
16511;DHT22;8368;48.772;8.754;2023-02-28T14:24:50;3.80;99.90
16511;DHT22;8368;48.772;8.754;2023-02-28T14:33:22;3.60;99.90
16511;DHT22;8368;48.772;8.754;2023-02-28T14:36:12;3.50;99.90
16511;DHT22;8368;48.772;8.754;2023-02-28T14:41:22;3.50;99.90
16511;DHT22;8368;48.772;8.754;2023-02-28T14:43:53;3.40;99.90
16511;DHT22;8368;48.772;8.754;2023-02-28T14:46:20;3.50;99.90
16511;DHT22;8368;48.772;8.754;2023-02-28T14:48:48;3.50;99.90
16511;DHT22;8368;48.772;8.754;2023-02-28T14:51:19;3.40;99.90
16511;DHT22;8368;48.772;8.754;2023-02-28T14:53:49;3.50;99.90
16511;DHT22;8368;48.772;8.754;2023-02-28T14:56:27;3.50;99.90
16511;DHT22;8368;48.772;8.754;2023-02-28T14:58:56;3.40;99.90
16511;DHT22;8368;48.772;8.754;2023-02-28T15:01:23;3.40;99.90
16511;DHT22;8368;48.772;8.754;2023-02-28T15:04:01;3.40;99.90
16511;DHT22;8368;48.772;8.754;2023-02-28T15:06:28;3.30;99.90
16511;DHT22;8368;48.772;8.754;2023-02-28T15:09:15;3.30;99.90
16511;DHT22;8368;48.772;8.754;2023-02-28T15:11:41;3.30;99.90
16511;DHT22;8368;48.772;8.754;2023-02-28T15:14:16;3.30;99.90
16511;DHT22;8368;48.772;8.754;2023-02-28T15:16:44;3.30;99.90
16511;DHT22;8368;48.772;8.754;2023-02-28T15:19:19;3.30;99.90
16511;DHT22;8368;48.772;8.754;2023-02-28T15:21:49;3.30;99.90
16511;DHT22;8368;48.772;8.754;2023-02-28T15:24:33;3.30;99.90
16511;DHT22;8368;48.772;8.754;2023-02-28T15:27:04;3.20;99.90
16511;DHT22;8368;48.772;8.754;2023-02-28T15:29:37;3.10;99.90
16511;DHT22;8368;48.772;8.754;2023-02-28T15:32:07;3.10;99.90
16511;DHT22;8368;48.772;8.754;2023-02-28T15:34:43;3.10;99.90
16511;DHT22;8368;48.772;8.754;2023-02-28T15:39:57;3.10;99.90
16511;DHT22;8368;48.772;8.754;2023-02-28T15:42:28;3.00;99.90
16511;DHT22;8368;48.772;8.754;2023-02-28T15:44:54;3.00;99.90
16511;DHT22;8368;48.772;8.754;2023-02-28T15:47:25;2.90;99.90
16511;DHT22;8368;48.772;8.754;2023-02-28T15:50:03;2.80;99.90
16511;DHT22;8368;48.772;8.754;2023-02-28T15:52:43;2.80;99.90
16511;DHT22;8368;48.772;8.754;2023-02-28T15:55:20;2.80;99.90
16511;DHT22;8368;48.772;8.754;2023-02-28T15:57:53;2.80;99.90
16511;DHT22;8368;48.772;8.754;2023-02-28T16:00:22;2.70;99.90
16511;DHT22;8368;48.772;8.754;2023-02-28T16:02:48;2.80;99.90
16511;DHT22;8368;48.772;8.754;2023-02-28T16:05:21;2.70;99.90
16511;DHT22;8368;48.772;8.754;2023-02-28T16:07:54;2.70;99.90
16511;DHT22;8368;48.772;8.754;2023-02-28T16:10:21;2.70;99.90
16511;DHT22;8368;48.772;8.754;2023-02-28T16:12:48;2.60;99.90
16511;DHT22;8368;48.772;8.754;2023-02-28T16:15:26;2.70;99.90
16511;DHT22;8368;48.772;8.754;2023-02-28T16:17:53;2.60;99.90
16511;DHT22;8368;48.772;8.754;2023-02-28T16:20:27;2.60;99.90
16511;DHT22;8368;48.772;8.754;2023-02-28T16:22:54;2.60;99.90
16511;DHT22;8368;48.772;8.754;2023-02-28T16:25:26;2.60;99.90
16511;DHT22;8368;48.772;8.754;2023-02-28T16:27:54;2.50;99.90
16511;DHT22;8368;48.772;8.754;2023-02-28T16:30:27;2.40;99.90
16511;DHT22;8368;48.772;8.754;2023-02-28T16:32:55;2.40;99.90
16511;DHT22;8368;48.772;8.754;2023-02-28T16:35:21;2.40;99.90
16511;DHT22;8368;48.772;8.754;2023-02-28T16:37:47;2.30;99.90
16511;DHT22;8368;48.772;8.754;2023-02-28T16:40:17;2.20;99.90
16511;DHT22;8368;48.772;8.754;2023-02-28T16:42:45;2.10;99.90
16511;DHT22;8368;48.772;8.754;2023-02-28T16:45:18;2.00;99.90
16511;DHT22;8368;48.772;8.754;2023-02-28T16:47:45;1.90;99.90
16511;DHT22;8368;48.772;8.754;2023-02-28T16:50:30;1.90;99.90
16511;DHT22;8368;48.772;8.754;2023-02-28T16:52:58;1.80;99.90
16511;DHT22;8368;48.772;8.754;2023-02-28T16:55:25;1.80;99.90
16511;DHT22;8368;48.772;8.754;2023-02-28T16:57:59;1.60;99.90
16511;DHT22;8368;48.772;8.754;2023-02-28T17:00:26;1.60;99.90
16511;DHT22;8368;48.772;8.754;2023-02-28T17:02:53;1.50;99.90
16511;DHT22;8368;48.772;8.754;2023-02-28T17:05:19;1.40;99.90
16511;DHT22;8368;48.772;8.754;2023-02-28T17:07:46;1.40;99.90
16511;DHT22;8368;48.772;8.754;2023-02-28T17:10:23;1.30;99.90
16511;DHT22;8368;48.772;8.754;2023-02-28T17:12:49;1.30;99.90
16511;DHT22;8368;48.772;8.754;2023-02-28T17:15:16;1.20;99.90
16511;DHT22;8368;48.772;8.754;2023-02-28T17:17:43;1.10;99.90
16511;DHT22;8368;48.772;8.754;2023-02-28T17:20:20;1.10;99.90
16511;DHT22;8368;48.772;8.754;2023-02-28T17:22:52;1.00;99.90
16511;DHT22;8368;48.772;8.754;2023-02-28T17:25:18;0.90;99.90
16511;DHT22;8368;48.772;8.754;2023-02-28T17:27:44;0.80;99.90
16511;DHT22;8368;48.772;8.754;2023-02-28T17:32:41;0.80;99.90
16511;DHT22;8368;48.772;8.754;2023-02-28T17:35:07;0.70;99.90
16511;DHT22;8368;48.772;8.754;2023-02-28T17:37:33;0.60;99.90
16511;DHT22;8368;48.772;8.754;2023-02-28T17:39:59;0.60;99.90
16511;DHT22;8368;48.772;8.754;2023-02-28T17:42:24;0.50;99.90
16511;DHT22;8368;48.772;8.754;2023-02-28T17:44:50;0.50;99.90
16511;DHT22;8368;48.772;8.754;2023-02-28T17:47:16;0.40;99.90
16511;DHT22;8368;48.772;8.754;2023-02-28T17:49:42;0.40;99.90
16511;DHT22;8368;48.772;8.754;2023-02-28T17:52:08;0.30;99.90
16511;DHT22;8368;48.772;8.754;2023-02-28T17:54:34;0.30;99.90
16511;DHT22;8368;48.772;8.754;2023-02-28T17:57:00;0.20;99.90
16511;DHT22;8368;48.772;8.754;2023-02-28T17:59:26;0.10;99.90
16511;DHT22;8368;48.772;8.754;2023-02-28T18:01:59;0.10;99.90
16511;DHT22;8368;48.772;8.754;2023-02-28T18:04:24;0.10;99.90
16511;DHT22;8368;48.772;8.754;2023-02-28T18:06:53;0.00;99.90
16511;DHT22;8368;48.772;8.754;2023-02-28T18:09:23;0.00;99.90
16511;DHT22;8368;48.772;8.754;2023-02-28T18:11:55;0.00;99.90